sensor_id;sensor_type;location;lat;lon;timestamp;P1;durP1;ratioP1;P2;durP2;ratioP2
74933;SDS011;63499;53.232;7.492;2022-10-13T00:00:33;11.52;;;4.03;;
74933;SDS011;63499;53.232;7.492;2022-10-13T00:03:00;8.55;;;4.15;;
74933;SDS011;63499;53.232;7.492;2022-10-13T00:05:28;10.20;;;4.03;;
74933;SDS011;63499;53.232;7.492;2022-10-13T00:07:55;8.85;;;4.32;;
74933;SDS011;63499;53.232;7.492;2022-10-13T00:10:22;17.02;;;4.97;;
74933;SDS011;63499;53.232;7.492;2022-10-13T00:12:49;12.07;;;4.70;;
74933;SDS011;63499;53.232;7.492;2022-10-13T00:15:17;9.75;;;3.95;;
74933;SDS011;63499;53.232;7.492;2022-10-13T00:17:46;12.05;;;4.15;;
74933;SDS011;63499;53.232;7.492;2022-10-13T00:20:13;9.75;;;4.22;;
74933;SDS011;63499;53.232;7.492;2022-10-13T00:22:39;10.57;;;4.45;;
74933;SDS011;63499;53.232;7.492;2022-10-13T00:25:06;10.30;;;4.47;;
74933;SDS011;63499;53.232;7.492;2022-10-13T00:27:40;7.80;;;3.80;;
74933;SDS011;63499;53.232;7.492;2022-10-13T00:30:14;13.45;;;3.83;;
74933;SDS011;63499;53.232;7.492;2022-10-13T00:32:48;9.63;;;4.45;;
74933;SDS011;63499;53.232;7.492;2022-10-13T00:35:14;12.38;;;4.68;;
74933;SDS011;63499;53.232;7.492;2022-10-13T00:37:41;12.80;;;4.75;;
74933;SDS011;63499;53.232;7.492;2022-10-13T00:40:08;10.25;;;5.00;;
74933;SDS011;63499;53.232;7.492;2022-10-13T00:42:39;10.45;;;4.32;;
74933;SDS011;63499;53.232;7.492;2022-10-13T00:45:14;11.05;;;4.07;;
74933;SDS011;63499;53.232;7.492;2022-10-13T00:47:46;9.82;;;4.50;;
74933;SDS011;63499;53.232;7.492;2022-10-13T00:50:18;12.52;;;4.00;;
74933;SDS011;63499;53.232;7.492;2022-10-13T00:52:49;15.35;;;4.78;;
74933;SDS011;63499;53.232;7.492;2022-10-13T00:55:21;13.80;;;4.15;;
74933;SDS011;63499;53.232;7.492;2022-10-13T00:57:49;11.68;;;3.45;;
74933;SDS011;63499;53.232;7.492;2022-10-13T01:00:28;14.20;;;4.88;;
74933;SDS011;63499;53.232;7.492;2022-10-13T01:02:59;13.38;;;4.70;;
74933;SDS011;63499;53.232;7.492;2022-10-13T01:05:25;14.05;;;5.45;;
74933;SDS011;63499;53.232;7.492;2022-10-13T01:07:53;11.02;;;4.70;;
74933;SDS011;63499;53.232;7.492;2022-10-13T01:10:34;9.73;;;4.57;;
74933;SDS011;63499;53.232;7.492;2022-10-13T01:13:47;12.43;;;4.75;;
74933;SDS011;63499;53.232;7.492;2022-10-13T01:24:07;14.90;;;5.35;;
74933;SDS011;63499;53.232;7.492;2022-10-13T01:31:46;12.85;;;4.55;;
74933;SDS011;63499;53.232;7.492;2022-10-13T01:34:17;11.15;;;4.40;;
74933;SDS011;63499;53.232;7.492;2022-10-13T01:42:03;17.77;;;4.90;;
74933;SDS011;63499;53.232;7.492;2022-10-13T01:44:37;14.55;;;4.65;;
74933;SDS011;63499;53.232;7.492;2022-10-13T01:47:05;8.77;;;4.65;;
74933;SDS011;63499;53.232;7.492;2022-10-13T01:49:33;9.73;;;4.30;;
74933;SDS011;63499;53.232;7.492;2022-10-13T01:52:02;17.83;;;5.57;;
74933;SDS011;63499;53.232;7.492;2022-10-13T01:54:30;15.45;;;6.03;;
74933;SDS011;63499;53.232;7.492;2022-10-13T01:56:58;7.95;;;4.25;;
74933;SDS011;63499;53.232;7.492;2022-10-13T01:59:24;13.65;;;4.50;;
74933;SDS011;63499;53.232;7.492;2022-10-13T02:01:59;12.52;;;5.00;;
74933;SDS011;63499;53.232;7.492;2022-10-13T02:09:42;8.30;;;4.50;;
74933;SDS011;63499;53.232;7.492;2022-10-13T02:12:14;9.30;;;4.65;;
74933;SDS011;63499;53.232;7.492;2022-10-13T02:14:42;9.80;;;4.70;;
74933;SDS011;63499;53.232;7.492;2022-10-13T02:17:09;12.60;;;4.72;;
74933;SDS011;63499;53.232;7.492;2022-10-13T02:19:38;11.32;;;4.93;;
74933;SDS011;63499;53.232;7.492;2022-10-13T02:22:05;12.48;;;4.78;;
74933;SDS011;63499;53.232;7.492;2022-10-13T02:24:33;10.00;;;4.82;;
74933;SDS011;63499;53.232;7.492;2022-10-13T02:27:00;15.07;;;5.25;;
74933;SDS011;63499;53.232;7.492;2022-10-13T02:29:27;9.93;;;4.75;;
74933;SDS011;63499;53.232;7.492;2022-10-13T02:31:54;10.23;;;5.05;;
74933;SDS011;63499;53.232;7.492;2022-10-13T02:34:20;11.63;;;4.85;;
74933;SDS011;63499;53.232;7.492;2022-10-13T02:36:47;13.90;;;5.40;;
74933;SDS011;63499;53.232;7.492;2022-10-13T02:39:13;18.85;;;5.90;;
74933;SDS011;63499;53.232;7.492;2022-10-13T02:41:42;14.38;;;5.80;;
74933;SDS011;63499;53.232;7.492;2022-10-13T02:44:08;11.18;;;5.03;;
74933;SDS011;63499;53.232;7.492;2022-10-13T02:46:40;12.52;;;5.15;;
74933;SDS011;63499;53.232;7.492;2022-10-13T02:49:06;10.35;;;5.28;;
74933;SDS011;63499;53.232;7.492;2022-10-13T02:51:33;9.32;;;4.90;;
74933;SDS011;63499;53.232;7.492;2022-10-13T02:53:59;10.98;;;5.47;;
74933;SDS011;63499;53.232;7.492;2022-10-13T02:56:26;14.00;;;5.88;;
74933;SDS011;63499;53.232;7.492;2022-10-13T02:58:53;14.25;;;5.72;;
74933;SDS011;63499;53.232;7.492;2022-10-13T03:01:19;11.52;;;4.85;;
74933;SDS011;63499;53.232;7.492;2022-10-13T03:03:46;13.05;;;5.72;;
74933;SDS011;63499;53.232;7.492;2022-10-13T03:06:12;9.13;;;4.75;;
74933;SDS011;63499;53.232;7.492;2022-10-13T03:08:39;13.85;;;4.95;;
74933;SDS011;63499;53.232;7.492;2022-10-13T03:11:09;15.50;;;5.38;;
74933;SDS011;63499;53.232;7.492;2022-10-13T03:13:36;16.92;;;6.40;;
74933;SDS011;63499;53.232;7.492;2022-10-13T03:16:05;16.33;;;6.47;;
74933;SDS011;63499;53.232;7.492;2022-10-13T03:18:31;13.68;;;5.57;;
74933;SDS011;63499;53.232;7.492;2022-10-13T03:21:03;14.18;;;6.10;;
74933;SDS011;63499;53.232;7.492;2022-10-13T03:23:32;15.75;;;6.93;;
74933;SDS011;63499;53.232;7.492;2022-10-13T03:25:58;11.57;;;5.18;;
74933;SDS011;63499;53.232;7.492;2022-10-13T03:28:25;12.00;;;5.85;;
74933;SDS011;63499;53.232;7.492;2022-10-13T03:31:01;13.20;;;7.63;;
74933;SDS011;63499;53.232;7.492;2022-10-13T03:33:28;14.70;;;6.32;;
74933;SDS011;63499;53.232;7.492;2022-10-13T03:35:59;11.68;;;6.03;;
74933;SDS011;63499;53.232;7.492;2022-10-13T03:38:27;14.85;;;7.28;;
74933;SDS011;63499;53.232;7.492;2022-10-13T03:40:53;14.57;;;6.45;;
74933;SDS011;63499;53.232;7.492;2022-10-13T03:43:20;10.50;;;5.75;;
74933;SDS011;63499;53.232;7.492;2022-10-13T03:46:01;18.70;;;6.30;;
74933;SDS011;63499;53.232;7.492;2022-10-13T03:48:28;13.82;;;6.47;;
74933;SDS011;63499;53.232;7.492;2022-10-13T03:50:55;15.05;;;7.30;;
74933;SDS011;63499;53.232;7.492;2022-10-13T03:53:22;12.15;;;5.78;;
74933;SDS011;63499;53.232;7.492;2022-10-13T03:55:52;24.48;;;7.35;;
74933;SDS011;63499;53.232;7.492;2022-10-13T03:58:19;11.30;;;5.32;;
74933;SDS011;63499;53.232;7.492;2022-10-13T04:00:49;10.77;;;5.85;;
74933;SDS011;63499;53.232;7.492;2022-10-13T04:03:16;15.15;;;5.78;;
74933;SDS011;63499;53.232;7.492;2022-10-13T04:05:49;18.17;;;7.73;;
74933;SDS011;63499;53.232;7.492;2022-10-13T04:08:15;15.80;;;6.93;;
74933;SDS011;63499;53.232;7.492;2022-10-13T04:10:47;18.13;;;7.85;;
74933;SDS011;63499;53.232;7.492;2022-10-13T04:13:13;12.35;;;6.13;;
74933;SDS011;63499;53.232;7.492;2022-10-13T04:15:44;16.60;;;6.72;;
74933;SDS011;63499;53.232;7.492;2022-10-13T04:18:11;17.65;;;7.90;;
74933;SDS011;63499;53.232;7.492;2022-10-13T04:20:38;11.15;;;6.30;;
74933;SDS011;63499;53.232;7.492;2022-10-13T04:23:05;15.05;;;7.00;;
74933;SDS011;63499;53.232;7.492;2022-10-13T04:25:35;16.15;;;7.68;;
74933;SDS011;63499;53.232;7.492;2022-10-13T04:28:05;14.57;;;6.53;;
74933;SDS011;63499;53.232;7.492;2022-10-13T04:30:35;13.07;;;5.73;;
74933;SDS011;63499;53.232;7.492;2022-10-13T04:33:01;12.65;;;6.90;;
74933;SDS011;63499;53.232;7.492;2022-10-13T04:35:28;13.20;;;6.53;;
74933;SDS011;63499;53.232;7.492;2022-10-13T04:37:55;11.02;;;5.70;;
74933;SDS011;63499;53.232;7.492;2022-10-13T04:40:28;16.63;;;7.00;;
74933;SDS011;63499;53.232;7.492;2022-10-13T04:42:54;17.58;;;7.18;;
74933;SDS011;63499;53.232;7.492;2022-10-13T04:45:21;16.70;;;7.68;;
74933;SDS011;63499;53.232;7.492;2022-10-13T04:47:48;17.05;;;8.50;;
74933;SDS011;63499;53.232;7.492;2022-10-13T04:50:16;15.93;;;6.47;;
74933;SDS011;63499;53.232;7.492;2022-10-13T04:52:46;13.00;;;7.25;;
74933;SDS011;63499;53.232;7.492;2022-10-13T04:55:12;16.48;;;6.97;;
74933;SDS011;63499;53.232;7.492;2022-10-13T04:57:39;17.48;;;7.68;;
74933;SDS011;63499;53.232;7.492;2022-10-13T05:00:17;14.65;;;6.45;;
74933;SDS011;63499;53.232;7.492;2022-10-13T05:02:44;13.63;;;6.63;;
74933;SDS011;63499;53.232;7.492;2022-10-13T05:05:10;13.00;;;6.80;;
74933;SDS011;63499;53.232;7.492;2022-10-13T05:07:37;17.10;;;6.53;;
74933;SDS011;63499;53.232;7.492;2022-10-13T05:10:09;10.98;;;6.38;;
74933;SDS011;63499;53.232;7.492;2022-10-13T05:12:36;16.48;;;7.10;;
74933;SDS011;63499;53.232;7.492;2022-10-13T05:15:03;13.35;;;7.43;;
74933;SDS011;63499;53.232;7.492;2022-10-13T05:17:29;19.27;;;6.93;;
74933;SDS011;63499;53.232;7.492;2022-10-13T05:19:56;16.42;;;7.78;;
74933;SDS011;63499;53.232;7.492;2022-10-13T05:22:23;17.38;;;7.13;;
74933;SDS011;63499;53.232;7.492;2022-10-13T05:24:50;16.52;;;7.78;;
74933;SDS011;63499;53.232;7.492;2022-10-13T05:27:17;14.30;;;7.70;;
74933;SDS011;63499;53.232;7.492;2022-10-13T05:29:44;15.45;;;8.27;;
74933;SDS011;63499;53.232;7.492;2022-10-13T05:32:11;16.13;;;7.75;;
74933;SDS011;63499;53.232;7.492;2022-10-13T05:34:37;14.50;;;6.60;;
74933;SDS011;63499;53.232;7.492;2022-10-13T05:37:04;16.02;;;7.40;;
74933;SDS011;63499;53.232;7.492;2022-10-13T05:39:31;22.25;;;7.95;;
74933;SDS011;63499;53.232;7.492;2022-10-13T05:41:58;16.92;;;7.60;;
74933;SDS011;63499;53.232;7.492;2022-10-13T05:44:25;18.95;;;9.60;;
74933;SDS011;63499;53.232;7.492;2022-10-13T05:46:52;17.42;;;6.63;;
74933;SDS011;63499;53.232;7.492;2022-10-13T05:49:19;14.30;;;6.32;;
74933;SDS011;63499;53.232;7.492;2022-10-13T05:51:46;13.55;;;6.97;;
74933;SDS011;63499;53.232;7.492;2022-10-13T05:54:18;14.63;;;6.90;;
74933;SDS011;63499;53.232;7.492;2022-10-13T05:59:14;21.83;;;10.00;;
74933;SDS011;63499;53.232;7.492;2022-10-13T06:01:46;17.40;;;8.75;;
74933;SDS011;63499;53.232;7.492;2022-10-13T06:04:16;22.45;;;9.30;;
74933;SDS011;63499;53.232;7.492;2022-10-13T06:06:45;24.90;;;10.25;;
74933;SDS011;63499;53.232;7.492;2022-10-13T06:09:13;22.05;;;11.20;;
74933;SDS011;63499;53.232;7.492;2022-10-13T06:11:40;24.52;;;9.93;;
74933;SDS011;63499;53.232;7.492;2022-10-13T06:14:07;21.05;;;10.07;;
74933;SDS011;63499;53.232;7.492;2022-10-13T06:16:34;25.63;;;11.77;;
74933;SDS011;63499;53.232;7.492;2022-10-13T06:19:03;17.83;;;8.95;;
74933;SDS011;63499;53.232;7.492;2022-10-13T06:21:30;24.85;;;9.40;;
74933;SDS011;63499;53.232;7.492;2022-10-13T06:23:56;24.60;;;11.70;;
74933;SDS011;63499;53.232;7.492;2022-10-13T06:26:23;25.85;;;12.10;;
74933;SDS011;63499;53.232;7.492;2022-10-13T06:28:50;19.95;;;11.02;;
74933;SDS011;63499;53.232;7.492;2022-10-13T06:31:17;24.40;;;10.25;;
74933;SDS011;63499;53.232;7.492;2022-10-13T06:33:43;19.17;;;10.52;;
74933;SDS011;63499;53.232;7.492;2022-10-13T06:36:10;24.27;;;12.55;;
74933;SDS011;63499;53.232;7.492;2022-10-13T06:38:37;17.80;;;9.48;;
74933;SDS011;63499;53.232;7.492;2022-10-13T06:41:04;20.02;;;9.48;;
74933;SDS011;63499;53.232;7.492;2022-10-13T06:43:37;14.52;;;8.02;;
74933;SDS011;63499;53.232;7.492;2022-10-13T06:46:04;25.33;;;9.07;;
74933;SDS011;63499;53.232;7.492;2022-10-13T06:48:31;14.75;;;8.02;;
74933;SDS011;63499;53.232;7.492;2022-10-13T06:51:02;21.65;;;10.43;;
74933;SDS011;63499;53.232;7.492;2022-10-13T06:53:31;20.40;;;10.32;;
74933;SDS011;63499;53.232;7.492;2022-10-13T06:56:01;21.98;;;10.18;;
74933;SDS011;63499;53.232;7.492;2022-10-13T06:58:27;25.13;;;10.85;;
74933;SDS011;63499;53.232;7.492;2022-10-13T07:00:55;23.52;;;11.68;;
74933;SDS011;63499;53.232;7.492;2022-10-13T07:03:22;21.55;;;11.75;;
74933;SDS011;63499;53.232;7.492;2022-10-13T07:05:49;17.05;;;10.18;;
74933;SDS011;63499;53.232;7.492;2022-10-13T07:08:16;18.98;;;10.50;;
74933;SDS011;63499;53.232;7.492;2022-10-13T07:10:43;23.20;;;12.52;;
74933;SDS011;63499;53.232;7.492;2022-10-13T07:13:10;18.48;;;9.00;;
74933;SDS011;63499;53.232;7.492;2022-10-13T07:15:37;22.58;;;10.65;;
74933;SDS011;63499;53.232;7.492;2022-10-13T07:18:04;20.48;;;10.02;;
74933;SDS011;63499;53.232;7.492;2022-10-13T07:20:31;19.08;;;9.45;;
74933;SDS011;63499;53.232;7.492;2022-10-13T07:22:58;16.63;;;8.65;;
74933;SDS011;63499;53.232;7.492;2022-10-13T07:25:25;17.63;;;9.15;;
74933;SDS011;63499;53.232;7.492;2022-10-13T07:27:52;16.42;;;8.38;;
74933;SDS011;63499;53.232;7.492;2022-10-13T07:30:18;22.05;;;11.30;;
74933;SDS011;63499;53.232;7.492;2022-10-13T07:32:47;15.27;;;9.60;;
74933;SDS011;63499;53.232;7.492;2022-10-13T07:35:15;16.35;;;9.25;;
74933;SDS011;63499;53.232;7.492;2022-10-13T07:37:50;23.08;;;12.27;;
74933;SDS011;63499;53.232;7.492;2022-10-13T07:40:27;25.65;;;11.15;;
74933;SDS011;63499;53.232;7.492;2022-10-13T07:42:59;19.23;;;9.95;;
74933;SDS011;63499;53.232;7.492;2022-10-13T07:45:33;16.73;;;9.93;;
74933;SDS011;63499;53.232;7.492;2022-10-13T07:48:00;27.42;;;11.35;;
74933;SDS011;63499;53.232;7.492;2022-10-13T07:50:27;20.42;;;10.90;;
74933;SDS011;63499;53.232;7.492;2022-10-13T07:52:54;23.25;;;13.02;;
74933;SDS011;63499;53.232;7.492;2022-10-13T07:55:21;19.60;;;10.48;;
74933;SDS011;63499;53.232;7.492;2022-10-13T07:57:52;25.42;;;12.10;;
74933;SDS011;63499;53.232;7.492;2022-10-13T08:00:19;22.10;;;11.30;;
74933;SDS011;63499;53.232;7.492;2022-10-13T08:02:49;20.95;;;13.43;;
74933;SDS011;63499;53.232;7.492;2022-10-13T08:05:17;22.90;;;11.40;;
74933;SDS011;63499;53.232;7.492;2022-10-13T08:07:43;21.75;;;12.77;;
74933;SDS011;63499;53.232;7.492;2022-10-13T08:10:10;28.88;;;13.65;;
74933;SDS011;63499;53.232;7.492;2022-10-13T08:12:44;27.45;;;14.27;;
74933;SDS011;63499;53.232;7.492;2022-10-13T08:15:18;30.25;;;14.45;;
74933;SDS011;63499;53.232;7.492;2022-10-13T08:17:45;29.23;;;15.00;;
74933;SDS011;63499;53.232;7.492;2022-10-13T08:20:11;28.02;;;14.88;;
74933;SDS011;63499;53.232;7.492;2022-10-13T08:22:38;27.25;;;15.50;;
74933;SDS011;63499;53.232;7.492;2022-10-13T08:25:05;23.20;;;12.85;;
74933;SDS011;63499;53.232;7.492;2022-10-13T08:27:38;29.30;;;15.68;;
74933;SDS011;63499;53.232;7.492;2022-10-13T08:30:05;30.02;;;14.32;;
74933;SDS011;63499;53.232;7.492;2022-10-13T08:32:35;31.17;;;14.93;;
74933;SDS011;63499;53.232;7.492;2022-10-13T08:35:02;37.35;;;16.17;;
74933;SDS011;63499;53.232;7.492;2022-10-13T08:37:29;20.27;;;12.43;;
74933;SDS011;63499;53.232;7.492;2022-10-13T08:39:57;20.33;;;11.82;;
74933;SDS011;63499;53.232;7.492;2022-10-13T08:42:23;18.55;;;12.35;;
74933;SDS011;63499;53.232;7.492;2022-10-13T08:44:51;28.90;;;14.55;;
74933;SDS011;63499;53.232;7.492;2022-10-13T08:50:16;26.17;;;14.73;;
74933;SDS011;63499;53.232;7.492;2022-10-13T08:52:44;26.75;;;13.23;;
74933;SDS011;63499;53.232;7.492;2022-10-13T08:58:10;29.73;;;15.65;;
74933;SDS011;63499;53.232;7.492;2022-10-13T09:00:44;24.95;;;13.15;;
74933;SDS011;63499;53.232;7.492;2022-10-13T09:03:22;18.17;;;12.30;;
74933;SDS011;63499;53.232;7.492;2022-10-13T09:06:12;26.05;;;13.52;;
74933;SDS011;63499;53.232;7.492;2022-10-13T09:08:38;32.63;;;15.88;;
74933;SDS011;63499;53.232;7.492;2022-10-13T09:11:07;21.58;;;12.57;;
74933;SDS011;63499;53.232;7.492;2022-10-13T09:13:34;24.50;;;15.02;;
74933;SDS011;63499;53.232;7.492;2022-10-13T09:16:02;26.02;;;13.68;;
74933;SDS011;63499;53.232;7.492;2022-10-13T09:18:33;25.48;;;14.55;;
74933;SDS011;63499;53.232;7.492;2022-10-13T09:23:37;23.20;;;14.00;;
74933;SDS011;63499;53.232;7.492;2022-10-13T09:26:07;22.45;;;13.93;;
74933;SDS011;63499;53.232;7.492;2022-10-13T09:28:36;22.03;;;12.83;;
74933;SDS011;63499;53.232;7.492;2022-10-13T09:31:05;25.75;;;13.63;;
74933;SDS011;63499;53.232;7.492;2022-10-13T09:33:38;27.38;;;16.02;;
74933;SDS011;63499;53.232;7.492;2022-10-13T09:36:15;26.98;;;13.80;;
74933;SDS011;63499;53.232;7.492;2022-10-13T09:39:03;30.50;;;16.70;;
74933;SDS011;63499;53.232;7.492;2022-10-13T09:41:34;34.80;;;15.27;;
74933;SDS011;63499;53.232;7.492;2022-10-13T09:44:07;26.48;;;15.32;;
74933;SDS011;63499;53.232;7.492;2022-10-13T09:46:38;29.92;;;15.27;;
74933;SDS011;63499;53.232;7.492;2022-10-13T09:49:44;22.63;;;14.10;;
74933;SDS011;63499;53.232;7.492;2022-10-13T09:52:14;25.75;;;15.63;;
74933;SDS011;63499;53.232;7.492;2022-10-13T09:54:48;34.35;;;16.20;;
74933;SDS011;63499;53.232;7.492;2022-10-13T09:59:50;29.10;;;17.17;;
74933;SDS011;63499;53.232;7.492;2022-10-13T10:02:26;34.08;;;17.35;;
74933;SDS011;63499;53.232;7.492;2022-10-13T10:04:53;29.10;;;17.35;;
74933;SDS011;63499;53.232;7.492;2022-10-13T10:07:35;24.70;;;15.05;;
74933;SDS011;63499;53.232;7.492;2022-10-13T10:10:04;26.17;;;14.25;;
74933;SDS011;63499;53.232;7.492;2022-10-13T10:12:31;34.50;;;17.70;;
74933;SDS011;63499;53.232;7.492;2022-10-13T10:15:02;35.08;;;18.58;;
74933;SDS011;63499;53.232;7.492;2022-10-13T10:17:35;32.92;;;17.52;;
74933;SDS011;63499;53.232;7.492;2022-10-13T10:22:47;32.83;;;17.33;;
74933;SDS011;63499;53.232;7.492;2022-10-13T10:30:30;29.90;;;16.58;;
74933;SDS011;63499;53.232;7.492;2022-10-13T10:33:12;33.35;;;18.48;;
74933;SDS011;63499;53.232;7.492;2022-10-13T10:35:43;29.52;;;18.42;;
74933;SDS011;63499;53.232;7.492;2022-10-13T10:40:59;33.97;;;17.35;;
74933;SDS011;63499;53.232;7.492;2022-10-13T10:46:23;34.92;;;19.42;;
74933;SDS011;63499;53.232;7.492;2022-10-13T10:48:57;30.05;;;18.98;;
74933;SDS011;63499;53.232;7.492;2022-10-13T10:53:53;26.65;;;16.48;;
74933;SDS011;63499;53.232;7.492;2022-10-13T10:59:20;31.25;;;17.48;;
74933;SDS011;63499;53.232;7.492;2022-10-13T11:01:50;29.27;;;16.17;;
74933;SDS011;63499;53.232;7.492;2022-10-13T11:06:51;34.70;;;19.73;;
74933;SDS011;63499;53.232;7.492;2022-10-13T11:14:46;31.05;;;17.20;;
74933;SDS011;63499;53.232;7.492;2022-10-13T11:17:17;33.80;;;17.73;;
74933;SDS011;63499;53.232;7.492;2022-10-13T11:19:46;27.83;;;16.98;;
74933;SDS011;63499;53.232;7.492;2022-10-13T11:22:18;36.80;;;17.20;;
74933;SDS011;63499;53.232;7.492;2022-10-13T11:24:52;29.90;;;17.30;;
74933;SDS011;63499;53.232;7.492;2022-10-13T11:27:23;33.40;;;18.13;;
74933;SDS011;63499;53.232;7.492;2022-10-13T11:30:00;37.08;;;19.60;;
74933;SDS011;63499;53.232;7.492;2022-10-13T11:35:19;32.20;;;18.48;;
74933;SDS011;63499;53.232;7.492;2022-10-13T11:51:31;30.90;;;18.02;;
74933;SDS011;63499;53.232;7.492;2022-10-13T11:59:02;37.65;;;18.33;;
74933;SDS011;63499;53.232;7.492;2022-10-13T12:01:33;29.63;;;17.40;;
74933;SDS011;63499;53.232;7.492;2022-10-13T12:04:11;26.70;;;16.10;;
74933;SDS011;63499;53.232;7.492;2022-10-13T12:06:38;32.17;;;17.95;;
74933;SDS011;63499;53.232;7.492;2022-10-13T12:09:13;31.90;;;17.60;;
74933;SDS011;63499;53.232;7.492;2022-10-13T12:11:43;37.35;;;19.15;;
74933;SDS011;63499;53.232;7.492;2022-10-13T12:14:36;29.73;;;16.88;;
74933;SDS011;63499;53.232;7.492;2022-10-13T12:17:00;27.83;;;16.70;;
74933;SDS011;63499;53.232;7.492;2022-10-13T12:19:29;30.50;;;14.70;;
74933;SDS011;63499;53.232;7.492;2022-10-13T12:21:57;24.63;;;16.25;;
74933;SDS011;63499;53.232;7.492;2022-10-13T12:24:26;28.77;;;16.70;;
74933;SDS011;63499;53.232;7.492;2022-10-13T12:26:53;33.08;;;17.45;;
74933;SDS011;63499;53.232;7.492;2022-10-13T12:29:23;28.27;;;16.08;;
74933;SDS011;63499;53.232;7.492;2022-10-13T12:31:51;27.60;;;16.13;;
74933;SDS011;63499;53.232;7.492;2022-10-13T12:34:19;26.50;;;14.38;;
74933;SDS011;63499;53.232;7.492;2022-10-13T12:36:50;23.90;;;14.40;;
74933;SDS011;63499;53.232;7.492;2022-10-13T12:39:17;26.52;;;14.20;;
74933;SDS011;63499;53.232;7.492;2022-10-13T12:41:45;21.92;;;14.80;;
74933;SDS011;63499;53.232;7.492;2022-10-13T12:44:13;22.58;;;14.60;;
74933;SDS011;63499;53.232;7.492;2022-10-13T12:46:41;22.70;;;12.77;;
74933;SDS011;63499;53.232;7.492;2022-10-13T12:51:36;26.13;;;14.38;;
74933;SDS011;63499;53.232;7.492;2022-10-13T12:54:20;27.50;;;14.70;;
74933;SDS011;63499;53.232;7.492;2022-10-13T12:56:48;25.73;;;15.35;;
74933;SDS011;63499;53.232;7.492;2022-10-13T12:59:18;23.13;;;14.00;;
74933;SDS011;63499;53.232;7.492;2022-10-13T13:01:53;22.95;;;15.35;;
74933;SDS011;63499;53.232;7.492;2022-10-13T13:07:19;28.58;;;16.58;;
74933;SDS011;63499;53.232;7.492;2022-10-13T13:09:40;28.98;;;16.65;;
74933;SDS011;63499;53.232;7.492;2022-10-13T13:19:33;31.73;;;17.30;;
74933;SDS011;63499;53.232;7.492;2022-10-13T13:22:01;29.23;;;17.00;;
74933;SDS011;63499;53.232;7.492;2022-10-13T13:24:28;29.80;;;17.05;;
74933;SDS011;63499;53.232;7.492;2022-10-13T13:26:55;30.15;;;16.95;;
74933;SDS011;63499;53.232;7.492;2022-10-13T13:29:22;30.17;;;16.23;;
74933;SDS011;63499;53.232;7.492;2022-10-13T13:31:48;28.55;;;16.05;;
74933;SDS011;63499;53.232;7.492;2022-10-13T13:34:15;26.13;;;15.05;;
74933;SDS011;63499;53.232;7.492;2022-10-13T13:36:41;29.60;;;18.23;;
74933;SDS011;63499;53.232;7.492;2022-10-13T13:39:13;31.95;;;16.95;;
74933;SDS011;63499;53.232;7.492;2022-10-13T13:41:56;27.83;;;16.95;;
74933;SDS011;63499;53.232;7.492;2022-10-13T13:44:23;24.15;;;15.90;;
74933;SDS011;63499;53.232;7.492;2022-10-13T13:49:23;26.38;;;16.88;;
74933;SDS011;63499;53.232;7.492;2022-10-13T13:51:49;28.15;;;17.48;;
74933;SDS011;63499;53.232;7.492;2022-10-13T13:54:29;27.60;;;15.82;;
74933;SDS011;63499;53.232;7.492;2022-10-13T13:56:57;24.02;;;16.48;;
74933;SDS011;63499;53.232;7.492;2022-10-13T13:59:25;29.25;;;18.73;;
74933;SDS011;63499;53.232;7.492;2022-10-13T14:01:51;27.92;;;16.98;;
74933;SDS011;63499;53.232;7.492;2022-10-13T14:04:20;28.65;;;19.55;;
74933;SDS011;63499;53.232;7.492;2022-10-13T14:06:47;31.52;;;19.98;;
74933;SDS011;63499;53.232;7.492;2022-10-13T14:09:13;32.33;;;19.05;;
74933;SDS011;63499;53.232;7.492;2022-10-13T14:11:40;27.00;;;17.88;;
74933;SDS011;63499;53.232;7.492;2022-10-13T14:14:07;28.23;;;18.02;;
74933;SDS011;63499;53.232;7.492;2022-10-13T14:16:33;28.85;;;17.90;;
74933;SDS011;63499;53.232;7.492;2022-10-13T14:19:04;28.55;;;18.30;;
74933;SDS011;63499;53.232;7.492;2022-10-13T14:21:31;40.17;;;23.00;;
74933;SDS011;63499;53.232;7.492;2022-10-13T14:23:59;29.13;;;20.05;;
74933;SDS011;63499;53.232;7.492;2022-10-13T14:26:26;35.88;;;21.90;;
74933;SDS011;63499;53.232;7.492;2022-10-13T14:28:53;35.90;;;22.00;;
74933;SDS011;63499;53.232;7.492;2022-10-13T14:31:19;30.90;;;20.48;;
74933;SDS011;63499;53.232;7.492;2022-10-13T14:33:46;33.38;;;21.70;;
74933;SDS011;63499;53.232;7.492;2022-10-13T14:36:12;33.67;;;19.50;;
74933;SDS011;63499;53.232;7.492;2022-10-13T14:38:43;41.03;;;20.88;;
74933;SDS011;63499;53.232;7.492;2022-10-13T14:41:10;30.75;;;19.90;;
74933;SDS011;63499;53.232;7.492;2022-10-13T14:43:36;36.17;;;22.17;;
74933;SDS011;63499;53.232;7.492;2022-10-13T14:46:03;29.00;;;19.23;;
74933;SDS011;63499;53.232;7.492;2022-10-13T14:48:31;25.42;;;18.10;;
74933;SDS011;63499;53.232;7.492;2022-10-13T14:50:58;36.67;;;24.73;;
74933;SDS011;63499;53.232;7.492;2022-10-13T14:53:25;31.95;;;21.30;;
74933;SDS011;63499;53.232;7.492;2022-10-13T14:55:52;29.40;;;20.63;;
74933;SDS011;63499;53.232;7.492;2022-10-13T14:58:19;32.88;;;22.52;;
74933;SDS011;63499;53.232;7.492;2022-10-13T15:00:46;35.13;;;21.98;;
74933;SDS011;63499;53.232;7.492;2022-10-13T15:03:12;36.83;;;23.20;;
74933;SDS011;63499;53.232;7.492;2022-10-13T15:05:39;29.83;;;21.33;;
74933;SDS011;63499;53.232;7.492;2022-10-13T15:08:06;31.10;;;20.17;;
74933;SDS011;63499;53.232;7.492;2022-10-13T15:10:33;28.95;;;21.08;;
74933;SDS011;63499;53.232;7.492;2022-10-13T15:12:59;28.73;;;19.55;;
74933;SDS011;63499;53.232;7.492;2022-10-13T15:15:26;27.88;;;19.38;;
74933;SDS011;63499;53.232;7.492;2022-10-13T15:17:53;31.83;;;20.25;;
74933;SDS011;63499;53.232;7.492;2022-10-13T15:20:20;28.58;;;20.13;;
74933;SDS011;63499;53.232;7.492;2022-10-13T15:22:47;30.42;;;19.15;;
74933;SDS011;63499;53.232;7.492;2022-10-13T15:25:14;23.95;;;16.67;;
74933;SDS011;63499;53.232;7.492;2022-10-13T15:27:40;25.88;;;18.08;;
74933;SDS011;63499;53.232;7.492;2022-10-13T15:30:07;23.17;;;16.83;;
74933;SDS011;63499;53.232;7.492;2022-10-13T15:32:34;27.08;;;18.30;;
74933;SDS011;63499;53.232;7.492;2022-10-13T15:35:01;27.95;;;18.23;;
74933;SDS011;63499;53.232;7.492;2022-10-13T15:37:28;27.83;;;18.73;;
74933;SDS011;63499;53.232;7.492;2022-10-13T15:39:55;30.08;;;19.98;;
74933;SDS011;63499;53.232;7.492;2022-10-13T15:42:22;25.30;;;18.73;;
74933;SDS011;63499;53.232;7.492;2022-10-13T15:44:48;30.13;;;20.33;;
74933;SDS011;63499;53.232;7.492;2022-10-13T15:47:15;28.98;;;20.63;;
74933;SDS011;63499;53.232;7.492;2022-10-13T15:49:41;22.95;;;17.48;;
74933;SDS011;63499;53.232;7.492;2022-10-13T15:52:08;28.67;;;19.08;;
74933;SDS011;63499;53.232;7.492;2022-10-13T15:54:35;27.30;;;18.77;;
74933;SDS011;63499;53.232;7.492;2022-10-13T15:57:01;26.27;;;18.50;;
74933;SDS011;63499;53.232;7.492;2022-10-13T15:59:28;25.27;;;17.63;;
74933;SDS011;63499;53.232;7.492;2022-10-13T16:01:55;24.25;;;16.08;;
74933;SDS011;63499;53.232;7.492;2022-10-13T16:04:21;22.35;;;16.05;;
74933;SDS011;63499;53.232;7.492;2022-10-13T16:06:52;33.17;;;18.27;;
74933;SDS011;63499;53.232;7.492;2022-10-13T16:09:18;25.88;;;15.30;;
74933;SDS011;63499;53.232;7.492;2022-10-13T16:11:45;23.50;;;17.38;;
74933;SDS011;63499;53.232;7.492;2022-10-13T16:14:12;21.35;;;14.32;;
74933;SDS011;63499;53.232;7.492;2022-10-13T16:16:38;22.23;;;16.10;;
74933;SDS011;63499;53.232;7.492;2022-10-13T16:19:05;23.35;;;16.75;;